createdAt,value
2019-05-20T00:04:03.181Z,153.43
2019-05-20T00:06:43.553Z,158.67
2019-05-20T00:09:23.578Z,171.27
2019-05-20T00:12:03.656Z,174.80
2019-05-20T00:14:43.711Z,175.67
2019-05-20T00:17:24.143Z,186.90
2019-05-20T00:20:04.282Z,200.10
2019-05-20T00:25:24.406Z,230.67
2019-05-20T00:28:05.387Z,231.10
2019-05-20T00:30:45.494Z,245.13
2019-05-20T00:33:25.777Z,255.30
2019-05-20T00:36:05.870Z,271.40
2019-05-20T00:38:48.495Z,288.20
2019-05-20T00:41:29.029Z,287.07
2019-05-20T00:44:08.905Z,312.50
2019-05-20T00:46:49.077Z,272.10
2019-05-20T00:49:29.056Z,277.13
2019-05-20T00:52:09.399Z,281.63
2019-05-20T00:54:49.490Z,288.33
2019-05-20T00:57:29.626Z,346.40
2019-05-20T01:00:09.638Z,322.17
2019-05-20T01:02:56.601Z,341.30
2019-05-20T01:05:31.554Z,342.23
2019-05-20T01:08:11.575Z,295.87
2019-05-20T01:10:51.630Z,301.73
2019-05-20T01:13:31.338Z,328.73
2019-05-20T01:16:11.492Z,332.27
2019-05-20T01:18:51.697Z,277.63
2019-05-20T01:21:31.975Z,355.93
2019-05-20T01:24:11.950Z,300.50
2019-05-20T01:26:51.848Z,316.97
2019-05-20T01:29:32.798Z,362.47
2019-05-20T01:32:13.156Z,321.30
2019-05-20T01:34:53.425Z,322.37
2019-05-20T01:37:33.522Z,350.93
2019-05-20T01:40:13.798Z,363.17
2019-05-20T01:42:53.883Z,309.90
2019-05-20T01:45:33.856Z,314.10
2019-05-20T01:48:14.170Z,318.77
2019-05-20T01:50:54.213Z,303.23
2019-05-20T01:53:34.067Z,286.53
2019-05-20T01:56:14.138Z,295.13
2019-05-20T01:58:55.583Z,304.03
2019-05-20T02:01:35.773Z,306.13
2019-05-20T02:04:15.802Z,326.70
2019-05-20T02:06:56.024Z,378.83
2019-05-20T02:09:36.015Z,334.07
2019-05-20T02:12:16.443Z,324.00
2019-05-20T02:15:02.435Z,316.37
2019-05-20T02:17:42.416Z,349.33
2019-05-20T02:20:22.382Z,338.73
2019-05-20T02:23:21.796Z,298.57
2019-05-20T02:26:01.442Z,264.20
2019-05-20T02:28:41.322Z,245.67
2019-05-20T02:31:21.574Z,253.40
2019-05-20T02:34:01.655Z,241.67
2019-05-20T02:36:41.690Z,235.40
2019-05-20T02:39:26.020Z,240.53
2019-05-20T02:42:03.909Z,265.63
2019-05-20T02:44:44.008Z,235.93
2019-05-20T02:47:24.305Z,227.27
2019-05-20T02:50:04.180Z,224.50
2019-05-20T02:52:44.311Z,226.87
2019-05-20T02:55:24.695Z,207.97
2019-05-20T02:58:04.715Z,213.33
2019-05-20T03:00:44.924Z,204.60
2019-05-20T03:03:25.978Z,196.70
2019-05-20T03:06:06.021Z,208.80
2019-05-20T03:08:46.090Z,221.03
2019-05-20T03:11:26.262Z,199.37
2019-05-20T03:14:06.336Z,199.57
2019-05-20T03:16:46.321Z,182.13
2019-05-20T03:19:26.344Z,180.43
2019-05-20T03:22:07.235Z,173.27
2019-05-20T03:24:47.385Z,170.70
2019-05-20T03:27:27.778Z,165.47
2019-05-20T03:30:07.959Z,170.53
2019-05-20T03:32:48.828Z,165.93
2019-05-20T03:35:29.058Z,157.83
2019-05-20T03:38:08.897Z,158.87
2019-05-20T03:40:49.604Z,153.40
2019-05-20T03:43:29.260Z,143.83
2019-05-20T03:46:09.443Z,150.77
2019-05-20T03:48:50.952Z,144.40
2019-05-20T03:51:30.724Z,131.63
2019-05-20T03:54:10.739Z,133.10
2019-05-20T03:56:50.612Z,123.93
2019-05-20T03:59:30.837Z,130.93
2019-05-20T04:02:11.038Z,126.63
2019-05-20T04:05:01.499Z,113.47
2019-05-20T04:07:33.003Z,128.33
2019-05-20T04:10:13.054Z,117.80
2019-05-20T04:12:53.071Z,121.07
2019-05-20T04:15:33.289Z,116.30
2019-05-20T04:18:14.474Z,119.03
2019-05-20T04:20:55.709Z,129.30
2019-05-20T04:23:35.827Z,114.33
2019-05-20T04:26:16.105Z,124.40
2019-05-20T04:28:56.179Z,121.80
2019-05-20T04:31:36.437Z,118.20
2019-05-20T04:34:16.246Z,128.87
2019-05-20T04:36:56.417Z,121.63
2019-05-20T04:39:36.639Z,124.33
2019-05-20T04:42:16.825Z,111.10
2019-05-20T04:44:56.880Z,115.67
2019-05-20T04:47:36.981Z,116.57
2019-05-20T04:50:16.995Z,114.97
2019-05-20T04:52:57.317Z,111.70
2019-05-20T04:55:36.981Z,110.90
2019-05-20T04:58:17.273Z,104.83
2019-05-20T05:00:57.395Z,99.93
2019-05-20T05:03:37.416Z,93.13
2019-05-20T05:06:17.174Z,95.87
2019-05-20T05:08:57.190Z,94.90
2019-05-20T05:11:37.100Z,89.77
2019-05-20T05:14:17.304Z,86.77
2019-05-20T05:16:57.503Z,92.33
2019-05-20T05:19:37.551Z,79.13
2019-05-20T05:22:17.650Z,76.03
2019-05-20T05:24:57.592Z,70.10
2019-05-20T05:27:37.378Z,74.40
2019-05-20T05:30:17.387Z,67.47
2019-05-20T05:32:57.133Z,67.20
2019-05-20T05:35:50.814Z,69.50
2019-05-20T05:38:19.135Z,67.63
2019-05-20T05:40:59.074Z,66.50
2019-05-20T05:43:39.328Z,63.47
2019-05-20T05:46:19.587Z,63.00
2019-05-20T05:48:59.816Z,54.67
2019-05-20T05:51:39.823Z,56.77
2019-05-20T05:54:20.049Z,58.20
2019-05-20T05:57:00.608Z,62.27
2019-05-20T05:59:40.310Z,54.60
2019-05-20T06:02:20.394Z,55.90
2019-05-20T06:05:00.472Z,53.27
2019-05-20T06:07:40.403Z,57.50
2019-05-20T06:10:20.297Z,55.00
2019-05-20T06:13:00.187Z,53.80
2019-05-20T06:15:40.101Z,51.70
2019-05-20T06:18:20.204Z,54.33
2019-05-20T06:21:00.290Z,48.37
2019-05-20T06:23:40.580Z,49.47
2019-05-20T06:26:20.473Z,50.50
2019-05-20T06:29:02.904Z,46.93
2019-05-20T06:31:42.491Z,44.53
2019-05-20T06:34:22.421Z,45.07
2019-05-20T06:37:04.847Z,45.97
2019-05-20T06:39:44.809Z,44.13
2019-05-20T06:42:24.634Z,43.40
2019-05-20T06:45:04.586Z,44.67
2019-05-20T06:47:44.860Z,43.23
2019-05-20T06:50:25.128Z,46.97
2019-05-20T06:53:05.228Z,45.00
2019-05-20T06:55:45.247Z,47.43
2019-05-20T06:58:25.487Z,43.37
2019-05-20T07:01:05.605Z,47.37
2019-05-20T07:03:45.631Z,45.60
2019-05-20T07:06:25.521Z,46.27
2019-05-20T07:09:05.676Z,45.57
2019-05-20T07:11:52.608Z,46.93
2019-05-20T07:14:28.005Z,46.37
2019-05-20T07:17:07.926Z,47.20
2019-05-20T07:19:48.081Z,47.50
2019-05-20T07:22:28.439Z,44.27
2019-05-20T07:25:08.571Z,45.80
2019-05-20T07:27:48.633Z,46.97
2019-05-20T07:30:29.614Z,44.50
2019-05-20T07:33:09.606Z,47.83
2019-05-20T07:35:49.749Z,47.83
2019-05-20T07:38:29.985Z,45.40
2019-05-20T07:41:10.016Z,45.83
2019-05-20T07:43:50.058Z,44.53
2019-05-20T07:46:30.076Z,45.27
2019-05-20T07:49:10.472Z,46.27
2019-05-20T07:51:50.439Z,41.43
2019-05-20T07:54:30.542Z,43.40
2019-05-20T07:57:10.648Z,42.80
2019-05-20T07:59:51.004Z,44.10
2019-05-20T08:02:31.113Z,38.53
2019-05-20T08:05:11.274Z,40.53
2019-05-20T08:07:52.770Z,41.33
2019-05-20T08:10:33.926Z,40.43
2019-05-20T08:13:14.326Z,40.00
2019-05-20T08:15:54.464Z,41.37
2019-05-20T08:18:34.665Z,45.03
2019-05-20T08:21:14.802Z,47.03
2019-05-20T08:23:55.023Z,37.93
2019-05-20T08:26:34.918Z,43.20
2019-05-20T08:29:15.163Z,45.20
2019-05-20T08:31:55.222Z,41.13
2019-05-20T08:34:35.445Z,44.63
2019-05-20T08:37:15.464Z,43.60
2019-05-20T08:39:55.679Z,45.63
2019-05-20T08:42:35.853Z,40.50
2019-05-20T08:45:15.639Z,42.37
2019-05-20T08:47:55.884Z,41.57
2019-05-20T08:50:36.042Z,44.43
2019-05-20T08:53:16.163Z,41.93
2019-05-20T08:55:56.601Z,40.30
2019-05-20T08:58:36.889Z,40.90
2019-05-20T09:01:17.148Z,42.57
2019-05-20T09:03:57.250Z,40.67
2019-05-20T09:06:37.451Z,43.53
2019-05-20T09:09:17.769Z,41.33
2019-05-20T09:11:57.871Z,41.63
2019-05-20T09:14:40.534Z,42.83
2019-05-20T09:17:20.122Z,41.87
2019-05-20T09:20:00.666Z,43.10
2019-05-20T09:22:43.004Z,40.43
2019-05-20T09:25:25.566Z,40.00
2019-05-20T09:32:17.253Z,44.27
2019-05-20T09:35:25.296Z,42.53
2019-05-20T09:38:19.498Z,43.40
2019-05-20T09:40:52.348Z,45.53
2019-05-20T09:43:35.048Z,45.63
2019-05-20T09:46:19.142Z,44.77
2019-05-20T09:49:04.847Z,49.70
2019-05-20T09:51:46.948Z,44.83
2019-05-20T09:54:29.809Z,48.80
2019-05-20T09:57:10.919Z,52.73
2019-05-20T10:06:28.307Z,53.80
2019-05-20T10:09:11.257Z,52.17
2019-05-20T10:11:53.497Z,55.17
2019-05-20T10:14:36.363Z,51.90
2019-05-20T10:17:19.165Z,51.27
2019-05-20T10:20:02.236Z,47.30
2019-05-20T10:22:44.879Z,49.73
2019-05-20T10:25:27.205Z,51.03
2019-05-20T10:28:09.571Z,52.33
2019-05-20T10:30:40.513Z,57.37
2019-05-20T10:36:57.680Z,56.33
2019-05-20T10:39:40.617Z,56.03
2019-05-20T10:42:23.662Z,57.07
2019-05-20T10:45:06.636Z,67.73
2019-05-20T10:47:49.137Z,62.57
2019-05-20T10:50:31.857Z,53.60
2019-05-20T10:53:14.676Z,58.87
2019-05-20T10:55:57.592Z,57.87
2019-05-20T10:58:40.465Z,58.27
2019-05-20T11:01:22.706Z,53.00
2019-05-20T11:04:05.084Z,58.47
2019-05-20T11:06:47.426Z,57.37
2019-05-20T11:09:28.512Z,59.23
2019-05-20T11:12:18.431Z,59.50
2019-05-20T11:15:00.795Z,60.77
2019-05-20T11:17:43.299Z,65.20
2019-05-20T11:20:25.835Z,64.63
2019-05-20T11:23:07.969Z,67.97
2019-05-20T11:25:50.593Z,65.53
2019-05-20T11:28:33.635Z,68.17
2019-05-20T11:31:16.104Z,64.87
2019-05-20T11:33:58.522Z,60.83
2019-05-20T11:36:41.267Z,57.00
2019-05-20T11:39:33.476Z,59.60
2019-05-20T11:42:08.004Z,59.50
2019-05-20T11:44:52.653Z,57.50
2019-05-20T11:47:34.814Z,58.43
2019-05-20T11:50:17.078Z,54.03
2019-05-20T11:52:59.800Z,55.20
2019-05-20T11:55:42.104Z,56.23
2019-05-20T11:58:16.202Z,62.37
2019-05-20T12:01:29.508Z,57.03
2019-05-20T12:04:12.481Z,56.47
2019-05-20T12:06:55.544Z,57.90
2019-05-20T12:09:48.866Z,55.33
2019-05-20T12:12:22.686Z,57.60
2019-05-20T12:15:06.390Z,53.00
2019-05-20T12:17:49.877Z,54.10
2019-05-20T12:20:32.116Z,54.20
2019-05-20T12:23:15.159Z,54.93
2019-05-20T12:25:57.837Z,56.40
2019-05-20T12:28:40.159Z,54.33
2019-05-20T12:31:22.548Z,54.63
2019-05-20T12:34:04.883Z,49.83
2019-05-20T12:36:47.606Z,50.70
2019-05-20T12:39:30.484Z,55.63
2019-05-20T12:42:13.123Z,53.80
2019-05-20T12:44:55.634Z,57.03
2019-05-20T12:47:38.110Z,65.67
2019-05-20T12:50:20.574Z,58.90
2019-05-20T12:53:02.907Z,51.87
2019-05-20T12:55:45.792Z,47.53
2019-05-20T12:58:28.260Z,49.20
2019-05-20T13:01:10.550Z,45.77
2019-05-20T13:03:53.109Z,46.80
2019-05-20T13:06:35.421Z,48.13
2019-05-20T13:09:17.729Z,45.50
2019-05-20T13:12:00.975Z,47.40
2019-05-20T13:14:43.302Z,47.93
2019-05-20T13:17:26.448Z,48.10
2019-05-20T13:20:09.501Z,48.50
2019-05-20T13:22:51.985Z,49.50
2019-05-20T13:25:35.004Z,45.50
2019-05-20T13:28:17.371Z,47.60
2019-05-20T13:31:00.330Z,44.57
2019-05-20T13:33:42.624Z,42.93
2019-05-20T13:36:25.379Z,40.77
2019-05-20T13:39:07.488Z,42.43
2019-05-20T13:41:51.098Z,44.90
2019-05-20T13:44:33.988Z,46.43
2019-05-20T13:47:16.457Z,50.00
2019-05-20T13:49:58.704Z,51.10
2019-05-20T13:52:41.151Z,50.73
2019-05-20T13:55:24.677Z,44.70
2019-05-20T13:58:06.824Z,46.07
2019-05-20T14:00:37.784Z,48.37
2019-05-20T14:03:27.733Z,47.93
2019-05-20T14:06:10.611Z,51.03
2019-05-20T14:08:53.305Z,46.97
2019-05-20T14:11:36.024Z,53.60
2019-05-20T14:14:18.899Z,56.50
2019-05-20T14:17:01.575Z,53.33
2019-05-20T14:19:44.628Z,51.37
2019-05-20T14:22:27.318Z,51.80
2019-05-20T14:25:09.861Z,51.53
2019-05-20T14:27:40.952Z,53.40
2019-05-20T14:30:30.941Z,49.40
2019-05-20T14:33:13.148Z,47.90
2019-05-20T14:35:55.410Z,52.40
2019-05-20T14:38:38.410Z,50.23
2019-05-20T14:41:22.192Z,51.60
2019-05-20T14:44:06.203Z,50.20
2019-05-20T14:46:48.746Z,52.53
2019-05-20T14:52:19.900Z,55.17
2019-05-20T14:55:02.194Z,54.70
2019-05-20T14:57:44.897Z,51.60
2019-05-20T15:00:27.191Z,55.77
2019-05-20T15:03:09.815Z,51.93
2019-05-20T15:05:52.485Z,56.70
2019-05-20T15:08:35.217Z,54.37
2019-05-20T15:11:19.110Z,54.10
2019-05-20T15:14:02.256Z,57.77
2019-05-20T15:16:45.300Z,52.80
2019-05-20T15:19:27.371Z,53.37
2019-05-20T15:22:09.707Z,49.57
2019-05-20T15:24:52.788Z,53.67
2019-05-20T15:27:35.329Z,54.30
2019-05-20T15:30:18.176Z,56.93
2019-05-20T15:33:00.455Z,55.83
2019-05-20T15:35:42.849Z,56.43
2019-05-20T15:38:26.054Z,49.40
2019-05-20T15:41:08.940Z,58.53
2019-05-20T15:43:51.019Z,52.93
2019-05-20T15:46:33.453Z,50.77
2019-05-20T15:49:15.937Z,52.73
2019-05-20T15:51:58.507Z,53.53
2019-05-20T15:54:41.806Z,48.20
2019-05-20T15:57:24.620Z,48.13
2019-05-20T16:00:06.074Z,47.87
2019-05-20T16:02:56.212Z,48.13
2019-05-20T16:05:38.496Z,47.57
2019-05-20T16:08:21.337Z,49.77
2019-05-20T16:11:06.605Z,54.63
2019-05-20T16:13:48.030Z,50.17
2019-05-20T16:16:31.008Z,49.90
2019-05-20T16:19:13.812Z,51.87
2019-05-20T16:21:54.839Z,52.10
2019-05-20T16:24:45.382Z,52.00
2019-05-20T16:27:53.762Z,49.63
2019-05-20T16:30:36.626Z,51.60
2019-05-20T16:33:19.114Z,48.47
2019-05-20T16:36:02.058Z,49.57
2019-05-20T16:38:44.627Z,45.67
2019-05-20T16:41:27.506Z,47.80
2019-05-20T16:44:09.740Z,44.23
2019-05-20T16:46:52.571Z,48.03
2019-05-20T16:49:35.213Z,46.10
2019-05-20T16:52:17.481Z,43.50
2019-05-20T16:55:00.078Z,40.97
2019-05-20T16:57:42.855Z,37.77
2019-05-20T17:00:32.051Z,37.70
2019-05-20T17:03:10.295Z,38.83
2019-05-20T17:05:52.891Z,34.97
2019-05-20T17:08:35.750Z,34.03
2019-05-20T17:11:18.294Z,32.87
2019-05-20T17:14:00.932Z,29.90
2019-05-20T17:19:32.828Z,29.57
2019-05-20T17:22:15.063Z,30.00
2019-05-20T17:24:57.712Z,29.90
2019-05-20T17:27:40.356Z,27.77
2019-05-20T17:30:24.163Z,27.20
2019-05-20T17:33:07.697Z,28.90
2019-05-20T17:35:51.458Z,28.83
2019-05-20T17:38:34.081Z,27.33
2019-05-20T17:41:16.649Z,30.83
2019-05-20T17:43:58.830Z,33.23
2019-05-20T17:46:40.908Z,32.03
2019-05-20T17:49:23.509Z,28.57
2019-05-20T17:52:06.608Z,31.67
2019-05-20T17:54:49.659Z,30.17
2019-05-20T17:57:32.659Z,33.90
2019-05-20T18:00:18.976Z,30.83
2019-05-20T18:03:01.351Z,30.37
2019-05-20T18:05:43.692Z,30.67
2019-05-20T18:08:27.806Z,33.97
2019-05-20T18:11:10.463Z,31.53
2019-05-20T18:13:52.756Z,31.87
2019-05-20T18:16:35.766Z,30.37
2019-05-20T18:19:18.646Z,31.87
2019-05-20T18:22:00.946Z,29.80
2019-05-20T18:24:43.544Z,29.93
2019-05-20T18:27:26.753Z,32.73
2019-05-20T18:30:09.100Z,35.00
2019-05-20T18:32:51.792Z,34.20
2019-05-20T18:35:34.058Z,30.10
2019-05-20T18:38:16.361Z,33.60
2019-05-20T18:40:59.699Z,33.90
2019-05-20T18:43:42.524Z,32.67
2019-05-20T18:46:25.018Z,30.50
2019-05-20T18:49:07.921Z,28.87
2019-05-20T18:51:50.541Z,31.90
2019-05-20T18:54:33.166Z,35.60
2019-05-20T18:57:16.312Z,33.40
2019-05-20T18:59:58.868Z,28.90
2019-05-20T19:02:41.506Z,30.43
2019-05-20T19:05:24.384Z,30.23
2019-05-20T19:10:56.221Z,32.57
2019-05-20T19:13:38.408Z,31.47
2019-05-20T19:16:21.426Z,33.07
2019-05-20T19:19:02.410Z,33.40
2019-05-20T19:21:53.316Z,31.23
2019-05-20T19:24:35.635Z,34.67
2019-05-20T19:27:18.520Z,38.70
2019-05-20T19:30:01.136Z,34.57
2019-05-20T19:32:43.644Z,33.83
2019-05-20T19:35:26.547Z,37.50
2019-05-20T19:38:09.732Z,32.90
2019-05-20T19:40:52.159Z,37.73
2019-05-20T19:43:35.970Z,37.80
2019-05-20T19:46:18.458Z,33.70
2019-05-20T19:49:00.735Z,35.17
2019-05-20T19:51:43.733Z,35.37
2019-05-20T19:57:15.220Z,37.33
2019-05-20T19:59:46.123Z,35.50
2019-05-20T20:02:55.318Z,35.33
2019-05-20T20:05:37.767Z,34.47
2019-05-20T20:08:20.882Z,34.87
2019-05-20T20:11:03.388Z,36.53
2019-05-20T20:13:46.102Z,35.90
2019-05-20T20:16:29.077Z,38.33
2019-05-20T20:19:11.606Z,41.83
2019-05-20T20:21:54.011Z,42.20
2019-05-20T20:24:36.869Z,43.43
2019-05-20T20:27:18.969Z,43.97
2019-05-20T20:30:01.598Z,45.33
2019-05-20T20:32:45.320Z,50.10
2019-05-20T20:35:37.765Z,49.87
2019-05-20T20:38:13.056Z,48.07
2019-05-20T20:40:56.053Z,53.20
2019-05-20T20:43:38.171Z,59.27
2019-05-20T20:46:20.907Z,55.73
2019-05-20T20:49:03.990Z,60.13
2019-05-20T20:51:46.992Z,62.80
2019-05-20T20:54:29.561Z,59.33
2019-05-20T20:57:13.117Z,59.27
2019-05-20T20:59:56.517Z,66.63
2019-05-20T21:05:21.131Z,61.33
2019-05-20T21:08:03.814Z,64.43
2019-05-20T21:10:46.748Z,67.93
2019-05-20T21:13:29.480Z,63.70
2019-05-20T21:16:12.498Z,66.00
2019-05-20T21:18:54.742Z,63.17
2019-05-20T21:21:36.925Z,63.63
2019-05-20T21:24:19.899Z,58.77
2019-05-20T21:27:02.199Z,57.50
2019-05-20T21:29:44.968Z,58.97
2019-05-20T21:32:27.822Z,63.33
2019-05-20T21:35:09.962Z,56.50
2019-05-20T21:37:52.678Z,57.17
2019-05-20T21:40:34.861Z,54.13
2019-05-20T21:43:17.410Z,53.77
2019-05-20T21:45:59.986Z,61.30
2019-05-20T21:48:42.272Z,55.93
2019-05-20T21:51:24.500Z,56.60
2019-05-20T21:54:05.608Z,53.77
2019-05-20T21:56:55.527Z,61.77
2019-05-20T21:59:38.442Z,57.33
2019-05-20T22:02:20.620Z,58.10
2019-05-20T22:05:02.784Z,59.73
2019-05-20T22:07:46.370Z,59.27
2019-05-20T22:10:28.584Z,64.27
2019-05-20T22:13:11.296Z,61.30
2019-05-20T22:15:52.446Z,69.47
2019-05-20T22:18:42.389Z,66.87
2019-05-20T22:21:28.937Z,69.90
2019-05-20T22:24:11.170Z,71.23
2019-05-20T22:26:53.992Z,74.07
2019-05-20T22:29:36.477Z,76.67
2019-05-20T22:32:19.559Z,87.73
2019-05-20T22:35:01.856Z,85.63
2019-05-20T22:37:44.670Z,88.37
2019-05-20T22:40:27.142Z,96.37
2019-05-20T22:43:09.430Z,91.30
2019-05-20T22:45:52.797Z,105.17
2019-05-20T22:48:35.887Z,95.33
2019-05-20T22:51:18.314Z,110.40
2019-05-20T22:54:01.566Z,102.10
2019-05-20T22:56:44.552Z,107.30
2019-05-20T22:59:27.533Z,128.10
2019-05-20T23:02:10.483Z,124.47
2019-05-20T23:04:53.075Z,131.47
2019-05-20T23:07:35.321Z,122.87
2019-05-20T23:10:17.661Z,125.63
2019-05-20T23:12:59.999Z,123.23
2019-05-20T23:15:42.232Z,87.87
2019-05-20T23:18:26.111Z,107.93
2019-05-20T23:21:09.065Z,116.43
2019-05-20T23:23:51.869Z,99.00
2019-05-20T23:26:34.653Z,106.20
2019-05-20T23:29:16.753Z,88.90
2019-05-20T23:31:58.997Z,80.10
2019-05-20T23:34:41.411Z,80.03
2019-05-20T23:37:24.381Z,75.27
2019-05-20T23:40:07.159Z,67.63
2019-05-20T23:42:50.455Z,63.20
2019-05-20T23:45:32.729Z,63.47
2019-05-20T23:48:14.866Z,55.50
2019-05-20T23:50:57.192Z,57.53
2019-05-20T23:53:40.140Z,62.67
2019-05-20T23:56:23.598Z,54.60
2019-05-20T23:59:06.549Z,51.80
